createdAt,value
2023-03-10T00:00:01.851Z,82.86
2023-03-10T00:03:25.067Z,82.73
2023-03-10T00:06:46.989Z,82.96
2023-03-10T00:10:11.259Z,82.47
2023-03-10T00:13:33.177Z,82.80
2023-03-10T00:16:55.097Z,82.88
2023-03-10T00:20:18.857Z,82.95
2023-03-10T00:23:40.607Z,82.82
2023-03-10T00:27:02.561Z,83.16
2023-03-10T00:30:24.605Z,82.92
2023-03-10T00:33:46.847Z,82.99
2023-03-10T00:37:10.144Z,83.30
2023-03-10T00:40:31.733Z,83.07
2023-03-10T00:43:53.837Z,83.19
2023-03-10T00:47:15.833Z,83.28
2023-03-10T00:50:37.255Z,83.53
2023-03-10T00:54:00.745Z,83.38
2023-03-10T00:57:22.307Z,83.49
2023-03-10T01:00:45.179Z,83.39
2023-03-10T01:04:08.428Z,82.90
2023-03-10T01:07:30.236Z,83.37
2023-03-10T01:10:54.088Z,83.31
2023-03-10T01:14:19.339Z,83.28
2023-03-10T01:17:41.024Z,83.42
2023-03-10T01:21:02.806Z,83.22
2023-03-10T01:24:25.210Z,83.07
2023-03-10T01:27:48.408Z,82.86
2023-03-10T01:31:10.174Z,83.16
2023-03-10T01:34:32.111Z,83.11
2023-03-10T01:37:54.864Z,83.12
2023-03-10T01:41:17.157Z,83.29
2023-03-10T01:44:40.367Z,83.11
2023-03-10T01:48:02.327Z,83.00
2023-03-10T01:51:24.817Z,83.27
2023-03-10T01:54:51.152Z,83.26
2023-03-10T01:58:15.879Z,83.23
2023-03-10T02:01:39.183Z,83.48
2023-03-10T02:05:01.282Z,83.54
2023-03-10T02:08:34.127Z,83.57
2023-03-10T02:11:58.935Z,83.57
2023-03-10T02:15:20.946Z,83.43
2023-03-10T02:18:46.301Z,83.45
2023-03-10T02:22:11.702Z,83.50
2023-03-10T02:25:42.043Z,83.27
2023-03-10T02:29:09.397Z,83.18
2023-03-10T02:32:34.835Z,83.31
2023-03-10T02:36:04.179Z,83.41
2023-03-10T02:39:26.028Z,83.29
2023-03-10T02:42:47.578Z,83.48
2023-03-10T02:46:11.093Z,83.39
2023-03-10T02:49:37.248Z,83.69
2023-03-10T02:53:08.055Z,83.64
2023-03-10T02:56:31.123Z,83.42
2023-03-10T02:59:53.055Z,83.61
2023-03-10T03:03:18.190Z,83.70
2023-03-10T03:06:41.193Z,83.80
2023-03-10T03:10:03.292Z,84.06
2023-03-10T03:13:25.446Z,83.74
2023-03-10T03:16:47.401Z,83.95
2023-03-10T03:20:14.472Z,83.95
2023-03-10T03:23:39.172Z,83.78
2023-03-10T03:27:01.917Z,83.74
2023-03-10T03:33:47.961Z,83.56
2023-03-10T03:37:11.400Z,83.34
2023-03-10T03:40:37.180Z,83.76
2023-03-10T03:44:01.032Z,83.57
2023-03-10T03:47:24.249Z,83.41
2023-03-10T03:50:46.246Z,83.30
2023-03-10T03:54:24.115Z,83.42
2023-03-10T03:57:46.736Z,83.29
2023-03-10T04:01:09.931Z,83.16
2023-03-10T04:04:37.184Z,83.33
2023-03-10T04:07:59.095Z,83.24
2023-03-10T04:11:24.778Z,83.68
2023-03-10T04:14:47.179Z,83.53
2023-03-10T04:18:10.617Z,83.25
2023-03-10T04:21:32.871Z,83.66
2023-03-10T04:24:55.120Z,83.10
2023-03-10T04:28:18.319Z,83.47
2023-03-10T04:31:42.009Z,83.35
2023-03-10T04:35:05.608Z,83.45
2023-03-10T04:38:28.152Z,83.44
2023-03-10T04:41:49.660Z,83.19
2023-03-10T04:45:13.909Z,82.94
2023-03-10T04:48:37.160Z,82.90
2023-03-10T04:51:59.430Z,82.67
2023-03-10T04:55:21.479Z,82.72
2023-03-10T04:58:43.608Z,82.70
2023-03-10T05:02:07.175Z,82.95
2023-03-10T05:05:29.179Z,82.88
2023-03-10T05:08:51.001Z,82.42
2023-03-10T05:12:15.788Z,82.88
2023-03-10T05:15:37.357Z,83.00
2023-03-10T05:19:00.677Z,82.82
2023-03-10T05:22:24.917Z,82.67
2023-03-10T05:25:47.280Z,82.93
2023-03-10T05:29:10.357Z,82.73
2023-03-10T05:32:43.775Z,82.74
2023-03-10T05:36:09.107Z,83.15
2023-03-10T05:39:31.495Z,82.92
2023-03-10T05:42:56.368Z,83.26
2023-03-10T05:46:19.467Z,83.00
2023-03-10T05:49:46.848Z,83.07
2023-03-10T05:53:10.776Z,83.10
2023-03-10T05:56:32.461Z,82.96
2023-03-10T05:59:56.792Z,82.74
2023-03-10T06:03:19.194Z,83.00
2023-03-10T06:06:40.934Z,82.95
2023-03-10T06:10:05.691Z,83.18
2023-03-10T06:13:27.806Z,82.75
2023-03-10T06:16:51.664Z,82.79
2023-03-10T06:20:14.374Z,83.22
2023-03-10T06:23:36.594Z,82.99
2023-03-10T06:26:59.738Z,82.96
2023-03-10T06:30:22.002Z,83.29
2023-03-10T06:33:44.329Z,83.61
2023-03-10T06:37:06.457Z,83.37
2023-03-10T06:40:28.175Z,83.46
2023-03-10T06:43:51.637Z,83.10
2023-03-10T06:47:13.292Z,83.50
2023-03-10T06:50:34.645Z,82.90
2023-03-10T06:53:57.620Z,82.96
2023-03-10T06:57:21.049Z,83.34
2023-03-10T07:00:44.355Z,83.38
2023-03-10T07:04:07.058Z,83.88
2023-03-10T07:07:28.671Z,84.30
2023-03-10T07:10:51.854Z,84.30
2023-03-10T07:14:13.681Z,83.70
2023-03-10T07:17:36.484Z,83.74
2023-03-10T07:20:58.471Z,83.59
2023-03-10T07:24:21.897Z,83.45
2023-03-10T07:27:45.216Z,83.21
2023-03-10T07:31:09.268Z,83.25
2023-03-10T07:34:32.199Z,83.21
2023-03-10T07:37:54.076Z,82.97
2023-03-10T07:41:17.524Z,82.88
2023-03-10T07:44:39.397Z,82.76
2023-03-10T07:48:01.740Z,82.72
2023-03-10T07:51:25.239Z,83.08
2023-03-10T07:54:46.986Z,83.21
2023-03-10T07:58:08.612Z,82.86
2023-03-10T08:01:30.655Z,83.18
2023-03-10T08:04:52.531Z,82.82
2023-03-10T08:08:15.608Z,83.37
2023-03-10T08:11:38.058Z,82.93
2023-03-10T08:15:00.179Z,82.94
2023-03-10T08:18:23.407Z,83.29
2023-03-10T08:21:46.657Z,83.25
2023-03-10T08:25:12.533Z,83.21
2023-03-10T08:28:35.328Z,83.52
2023-03-10T08:31:57.168Z,83.78
2023-03-10T08:35:19.008Z,83.28
2023-03-10T08:38:41.112Z,82.71
2023-03-10T08:42:04.041Z,83.07
2023-03-10T08:45:26.252Z,83.17
2023-03-10T08:48:48.515Z,82.98
2023-03-10T08:52:10.312Z,83.34
2023-03-10T08:55:32.346Z,83.50
2023-03-10T08:58:58.982Z,83.90
2023-03-10T09:02:22.099Z,83.88
2023-03-10T09:05:44.112Z,83.35
2023-03-10T09:09:07.436Z,83.90
2023-03-10T09:12:35.091Z,83.17
2023-03-10T09:15:59.905Z,83.35
2023-03-10T09:19:21.569Z,83.72
2023-03-10T09:22:43.500Z,83.39
2023-03-10T09:26:05.457Z,84.25
2023-03-10T09:29:42.047Z,83.96
2023-03-10T09:33:07.152Z,83.59
2023-03-10T09:36:29.722Z,83.47
2023-03-10T09:39:51.550Z,83.48
2023-03-10T09:43:16.718Z,83.52
2023-03-10T09:46:45.984Z,83.45
2023-03-10T09:50:23.854Z,83.83
2023-03-10T09:53:56.066Z,83.50
2023-03-10T09:57:20.056Z,83.46
2023-03-10T10:00:44.288Z,82.90
2023-03-10T10:04:10.547Z,83.13
2023-03-10T10:07:43.617Z,82.72
2023-03-10T10:11:06.962Z,83.04
2023-03-10T10:14:31.587Z,83.39
2023-03-10T10:18:18.864Z,83.70
2023-03-10T10:21:47.736Z,83.21
2023-03-10T10:25:20.046Z,83.58
2023-03-10T10:28:44.974Z,84.40
2023-03-10T10:32:09.508Z,84.21
2023-03-10T10:35:33.032Z,83.45
2023-03-10T10:38:55.960Z,83.85
2023-03-10T10:42:24.204Z,83.41
2023-03-10T10:45:46.275Z,82.94
2023-03-10T10:49:19.601Z,82.81
2023-03-10T10:52:41.897Z,83.29
2023-03-10T10:56:07.465Z,83.04
2023-03-10T10:59:32.663Z,82.82
2023-03-10T11:02:54.896Z,83.09
2023-03-10T11:06:25.429Z,83.77
2023-03-10T11:09:47.829Z,83.41
2023-03-10T11:13:21.055Z,82.79
2023-03-10T11:16:54.057Z,82.84
2023-03-10T11:20:25.719Z,83.00
2023-03-10T11:24:00.500Z,82.86
2023-03-10T11:27:28.907Z,83.47
2023-03-10T11:30:56.966Z,83.41
2023-03-10T11:34:25.677Z,83.29
2023-03-10T11:37:53.050Z,84.24
2023-03-10T11:41:19.269Z,83.33
2023-03-10T11:44:48.332Z,83.11
2023-03-10T11:48:48.109Z,83.41
2023-03-10T11:52:14.851Z,84.27
2023-03-10T11:55:38.183Z,83.61
2023-03-10T11:59:04.062Z,83.85
2023-03-10T12:02:30.908Z,84.14
2023-03-10T12:05:56.490Z,83.75
2023-03-10T12:09:40.267Z,83.57
2023-03-10T12:13:02.986Z,84.12
2023-03-10T12:16:27.052Z,84.67
2023-03-10T12:20:12.037Z,84.40
2023-03-10T12:23:42.107Z,84.43
2023-03-10T12:27:05.949Z,84.09
2023-03-10T12:30:48.310Z,83.47
2023-03-10T12:34:15.952Z,83.47
2023-03-10T12:37:37.460Z,84.62
2023-03-10T12:41:01.074Z,84.46
2023-03-10T12:44:58.565Z,84.17
2023-03-10T12:48:22.311Z,84.91
2023-03-10T12:51:48.259Z,84.76
2023-03-10T12:55:21.082Z,85.10
2023-03-10T12:58:48.680Z,84.94
2023-03-10T13:02:25.620Z,84.77
2023-03-10T13:06:03.229Z,84.80
2023-03-10T13:09:29.502Z,85.58
2023-03-10T13:12:54.778Z,85.20
2023-03-10T13:16:19.868Z,85.15
2023-03-10T13:19:43.289Z,85.64
2023-03-10T13:23:05.160Z,85.67
2023-03-10T13:26:28.172Z,86.23
2023-03-10T13:29:55.840Z,86.14
2023-03-10T13:33:24.700Z,85.32
2023-03-10T13:36:49.914Z,85.35
2023-03-10T13:40:17.403Z,85.32
2023-03-10T13:43:41.612Z,85.82
2023-03-10T13:47:12.700Z,85.82
2023-03-10T13:50:34.645Z,85.18
2023-03-10T13:54:03.727Z,85.66
2023-03-10T13:57:31.038Z,85.25
2023-03-10T14:00:56.359Z,85.36
2023-03-10T14:04:19.928Z,86.21
2023-03-10T14:08:00.504Z,86.10
2023-03-10T14:11:35.892Z,85.66
2023-03-10T14:15:10.401Z,86.35
2023-03-10T14:18:37.251Z,86.45
2023-03-10T14:22:02.261Z,86.05
2023-03-10T14:25:25.326Z,86.04
2023-03-10T14:28:48.516Z,85.70
2023-03-10T14:32:14.535Z,85.99
2023-03-10T14:35:36.251Z,85.58
2023-03-10T14:38:58.208Z,86.02
2023-03-10T14:42:23.647Z,85.61
2023-03-10T14:45:48.495Z,84.92
2023-03-10T14:49:16.044Z,85.01
2023-03-10T14:52:37.703Z,85.21
2023-03-10T14:56:02.548Z,85.24
2023-03-10T14:59:24.225Z,84.29
2023-03-10T15:02:49.093Z,84.40
2023-03-10T15:06:13.660Z,83.73
2023-03-10T15:09:35.853Z,84.21
2023-03-10T15:12:57.754Z,84.62
2023-03-10T15:16:19.683Z,84.42
2023-03-10T15:19:42.886Z,84.46
2023-03-10T15:23:05.068Z,84.05
2023-03-10T15:26:27.264Z,83.44
2023-03-10T15:29:49.097Z,82.95
2023-03-10T15:33:11.589Z,82.48
2023-03-10T15:36:35.462Z,83.14
2023-03-10T15:39:57.288Z,83.65
2023-03-10T15:43:19.220Z,83.60
2023-03-10T15:46:41.346Z,83.63
2023-03-10T15:50:03.513Z,83.22
2023-03-10T15:53:26.769Z,83.18
2023-03-10T15:56:48.555Z,82.91
2023-03-10T16:00:12.158Z,82.89
2023-03-10T16:03:36.421Z,82.91
2023-03-10T16:06:57.632Z,82.80
2023-03-10T16:10:21.813Z,83.38
2023-03-10T16:13:45.200Z,83.04
2023-03-10T16:17:07.189Z,82.05
2023-03-10T16:20:29.105Z,82.94
2023-03-10T16:23:51.064Z,83.20
2023-03-10T16:27:14.288Z,82.67
2023-03-10T16:30:36.229Z,82.75
2023-03-10T16:33:58.454Z,82.78
2023-03-10T16:37:20.305Z,82.14
2023-03-10T16:40:42.685Z,82.72
2023-03-10T16:44:07.330Z,82.51
2023-03-10T16:47:29.453Z,83.07
2023-03-10T16:50:52.001Z,82.76
2023-03-10T16:54:15.688Z,82.55
2023-03-10T16:57:38.864Z,82.83
2023-03-10T17:01:02.118Z,82.63
2023-03-10T17:04:23.893Z,82.89
2023-03-10T17:07:55.098Z,83.37
2023-03-10T17:11:19.892Z,82.92
2023-03-10T17:14:41.395Z,82.78
2023-03-10T17:18:04.926Z,83.14
2023-03-10T17:21:29.452Z,82.72
2023-03-10T17:24:53.928Z,82.96
2023-03-10T17:28:15.517Z,83.49
2023-03-10T17:31:37.811Z,83.19
2023-03-10T17:35:01.144Z,83.66
2023-03-10T17:38:22.904Z,83.88
2023-03-10T17:41:44.694Z,83.51
2023-03-10T17:45:07.737Z,83.60
2023-03-10T17:48:30.448Z,83.68
2023-03-10T17:51:53.538Z,84.10
2023-03-10T17:55:15.464Z,83.86
2023-03-10T17:58:37.249Z,83.79
2023-03-10T18:01:58.862Z,83.49
2023-03-10T18:05:20.509Z,83.36
2023-03-10T18:08:44.108Z,83.32
2023-03-10T18:12:06.764Z,83.36
2023-03-10T18:15:28.650Z,83.42
2023-03-10T18:18:50.660Z,83.63
2023-03-10T18:22:13.592Z,83.65
2023-03-10T18:25:43.449Z,83.57
2023-03-10T18:29:05.619Z,83.76
2023-03-10T18:32:27.566Z,84.07
2023-03-10T18:35:49.728Z,84.67
2023-03-10T18:39:12.216Z,84.32
2023-03-10T18:42:35.422Z,84.17
2023-03-10T18:45:57.634Z,84.04
2023-03-10T18:49:19.672Z,84.08
2023-03-10T18:52:42.380Z,84.36
2023-03-10T18:56:04.139Z,84.50
2023-03-10T18:59:27.095Z,84.80
2023-03-10T19:02:52.211Z,84.17
2023-03-10T19:06:13.962Z,83.85
2023-03-10T19:09:36.736Z,83.88
2023-03-10T19:12:58.520Z,83.79
2023-03-10T19:16:22.390Z,83.67
2023-03-10T19:19:43.743Z,83.15
2023-03-10T19:23:05.684Z,82.97
2023-03-10T19:26:27.616Z,83.04
2023-03-10T19:29:52.477Z,82.89
2023-03-10T19:33:15.678Z,83.11
2023-03-10T19:36:37.058Z,83.32
2023-03-10T19:39:59.154Z,82.88
2023-03-10T19:43:20.641Z,83.30
2023-03-10T19:46:42.672Z,82.87
2023-03-10T19:50:07.471Z,82.74
2023-03-10T19:53:30.790Z,83.30
2023-03-10T19:56:52.504Z,82.94
2023-03-10T20:00:16.306Z,82.91
2023-03-10T20:03:38.102Z,82.84
2023-03-10T20:07:01.583Z,82.80
2023-03-10T20:10:23.104Z,83.13
2023-03-10T20:13:45.784Z,83.21
2023-03-10T20:17:08.124Z,83.15
2023-03-10T20:20:29.917Z,83.51
2023-03-10T20:23:55.948Z,83.93
2023-03-10T20:27:17.857Z,83.65
2023-03-10T20:30:43.704Z,83.87
2023-03-10T20:34:07.054Z,83.63
2023-03-10T20:37:28.684Z,84.08
2023-03-10T20:40:51.972Z,83.74
2023-03-10T20:44:14.243Z,84.24
2023-03-10T20:47:36.545Z,83.99
2023-03-10T20:50:58.614Z,83.99
2023-03-10T20:54:21.388Z,83.86
2023-03-10T20:57:44.560Z,83.45
2023-03-10T21:01:06.272Z,83.81
2023-03-10T21:04:28.345Z,84.29
2023-03-10T21:07:51.324Z,84.04
2023-03-10T21:11:12.975Z,84.36
2023-03-10T21:14:36.379Z,84.46
2023-03-10T21:17:58.124Z,84.44
2023-03-10T21:21:19.661Z,83.93
2023-03-10T21:24:41.490Z,83.97
2023-03-10T21:28:03.285Z,84.49
2023-03-10T21:31:26.523Z,84.50
2023-03-10T21:34:48.050Z,84.45
2023-03-10T21:38:10.703Z,84.43
2023-03-10T21:41:32.740Z,84.09
2023-03-10T21:44:55.898Z,84.54
2023-03-10T21:48:19.012Z,84.06
2023-03-10T21:51:40.436Z,83.70
2023-03-10T21:55:02.418Z,84.18
2023-03-10T21:58:24.979Z,84.22
2023-03-10T22:01:46.979Z,84.45
2023-03-10T22:05:13.120Z,83.98
2023-03-10T22:08:35.647Z,84.42
2023-03-10T22:11:57.904Z,84.10
2023-03-10T22:15:23.002Z,84.07
2023-03-10T22:18:45.048Z,83.92
2023-03-10T22:22:08.061Z,83.99
2023-03-10T22:25:30.282Z,83.99
2023-03-10T22:28:52.232Z,83.67
2023-03-10T22:32:14.105Z,84.10
2023-03-10T22:35:36.730Z,84.11
2023-03-10T22:38:59.444Z,84.12
2023-03-10T22:42:21.193Z,83.34
2023-03-10T22:45:43.150Z,84.00
2023-03-10T22:49:05.332Z,84.39
2023-03-10T22:52:26.562Z,84.43
2023-03-10T22:55:50.685Z,84.21
2023-03-10T22:59:12.732Z,84.48
2023-03-10T23:02:34.308Z,84.29
2023-03-10T23:05:58.330Z,84.70
2023-03-10T23:09:19.985Z,84.84
2023-03-10T23:12:44.357Z,84.44
2023-03-10T23:16:07.149Z,84.94
2023-03-10T23:19:28.640Z,85.06
2023-03-10T23:22:50.441Z,84.79
2023-03-10T23:26:12.645Z,84.82
2023-03-10T23:29:35.680Z,85.27
2023-03-10T23:32:57.912Z,85.63
2023-03-10T23:36:19.940Z,85.21
2023-03-10T23:39:41.737Z,84.84
2023-03-10T23:43:05.992Z,84.91
2023-03-10T23:46:29.245Z,85.08
2023-03-10T23:49:51.062Z,85.49
2023-03-10T23:53:14.453Z,85.14
2023-03-10T23:56:36.432Z,85.11
2023-03-10T23:59:58.405Z,84.95
